createdAt,value
2016-08-11T00:04:04.952Z,"  -73"
2016-08-11T00:09:02.529Z,"  -73"
2016-08-11T00:14:00.118Z,"  -72"
2016-08-11T00:18:57.718Z,"  -73"
2016-08-11T00:23:55.351Z,"  -73"
2016-08-11T00:28:53.020Z,"  -72"
2016-08-11T00:33:50.626Z,"  -72"
2016-08-11T00:38:48.295Z,"  -72"
2016-08-11T00:43:46.069Z,"  -72"
2016-08-11T00:48:43.679Z,"  -72"
2016-08-11T00:53:41.284Z,"  -73"
2016-08-11T00:58:39.084Z,"  -72"
2016-08-11T01:03:36.646Z,"  -72"
2016-08-11T01:08:34.225Z,"  -73"
2016-08-11T01:13:32.081Z,"  -72"
2016-08-11T01:18:29.713Z,"  -72"
2016-08-11T01:23:27.380Z,"  -73"
2016-08-11T01:33:22.658Z,"  -72"
2016-08-11T01:38:20.431Z,"  -72"
2016-08-11T01:43:17.953Z,"  -71"
2016-08-11T01:48:15.632Z,"  -73"
2016-08-11T01:53:13.253Z,"  -72"
2016-08-11T01:58:10.932Z,"  -71"
2016-08-11T02:03:08.551Z,"  -72"
2016-08-11T02:08:06.459Z,"  -72"
2016-08-11T02:13:04.100Z,"  -72"
2016-08-11T02:18:01.696Z,"  -72"
2016-08-11T02:23:00.241Z,"  -72"
2016-08-11T02:27:57.604Z,"  -72"
2016-08-11T02:32:55.363Z,"  -73"
2016-08-11T02:37:53.089Z,"  -72"
2016-08-11T02:42:50.888Z,"  -72"
2016-08-11T02:47:48.478Z,"  -72"
2016-08-11T02:52:46.096Z,"  -72"
2016-08-11T02:57:44.030Z,"  -72"
2016-08-11T03:02:41.654Z,"  -72"
2016-08-11T03:07:39.300Z,"  -72"
2016-08-11T03:12:36.957Z,"  -72"
2016-08-11T03:17:34.876Z,"  -72"
2016-08-11T03:22:32.513Z,"  -73"
2016-08-11T03:27:30.001Z,"  -72"
2016-08-11T03:32:27.732Z,"  -72"
2016-08-11T03:37:25.350Z,"  -72"
2016-08-11T03:42:23.060Z,"  -72"
2016-08-11T03:47:20.668Z,"  -71"
2016-08-11T03:52:18.253Z,"  -72"
2016-08-11T03:57:15.881Z,"  -73"
2016-08-11T04:02:13.488Z,"  -72"
2016-08-11T04:07:11.091Z,"  -71"
2016-08-11T04:12:08.826Z,"  -72"
2016-08-11T04:17:06.454Z,"  -72"
2016-08-11T04:22:03.957Z,"  -70"
2016-08-11T04:27:01.825Z,"  -72"
2016-08-11T04:31:59.545Z,"  -72"
2016-08-11T04:36:57.256Z,"  -70"
2016-08-11T04:41:54.914Z,"  -72"
2016-08-11T04:46:52.554Z,"  -72"
2016-08-11T04:51:50.323Z,"  -70"
2016-08-11T04:56:48.238Z,"  -72"
2016-08-11T05:01:45.872Z,"  -72"
2016-08-11T05:06:43.597Z,"  -70"
2016-08-11T05:11:41.437Z,"  -72"
2016-08-11T05:16:39.084Z,"  -72"
2016-08-11T05:21:36.822Z,"  -70"
2016-08-11T05:26:34.348Z,"  -72"
2016-08-11T05:31:32.050Z,"  -72"
2016-08-11T05:36:29.703Z,"  -71"
2016-08-11T05:41:27.644Z,"  -70"
2016-08-11T05:46:25.308Z,"  -72"
2016-08-11T05:51:22.864Z,"  -71"
2016-08-11T05:56:20.538Z,"  -72"
2016-08-11T06:01:18.703Z,"  -73"
2016-08-11T06:06:16.481Z,"  -71"
2016-08-11T06:11:14.353Z,"  -73"
2016-08-11T06:16:11.957Z,"  -72"
2016-08-11T06:21:09.772Z,"  -72"
2016-08-11T06:26:07.482Z,"  -72"
2016-08-11T06:31:05.323Z,"  -72"
2016-08-11T06:36:03.026Z,"  -72"
2016-08-11T06:41:00.745Z,"  -72"
2016-08-11T06:45:58.494Z,"  -73"
2016-08-11T06:50:56.274Z,"  -73"
2016-08-11T06:55:54.023Z,"  -74"
2016-08-11T07:00:51.753Z,"  -75"
2016-08-11T07:05:49.384Z,"  -73"
2016-08-11T07:10:47.264Z,"  -73"
2016-08-11T07:15:45.173Z,"  -75"
2016-08-11T07:20:42.920Z,"  -73"
2016-08-11T07:25:40.625Z,"  -73"
2016-08-11T07:30:38.645Z,"  -75"
2016-08-11T07:35:36.203Z,"  -73"
2016-08-11T07:40:34.049Z,"  -74"
2016-08-11T07:45:32.088Z,"  -74"
2016-08-11T07:50:29.813Z,"  -73"
2016-08-11T07:55:27.543Z,"  -73"
2016-08-11T08:00:25.228Z,"  -73"
2016-08-11T08:05:22.920Z,"  -75"
2016-08-11T08:10:20.597Z,"  -73"
2016-08-11T08:15:18.377Z,"  -73"
2016-08-11T08:20:16.046Z,"  -74"
2016-08-11T08:25:14.621Z,"  -73"
2016-08-11T08:30:12.411Z,"  -76"
2016-08-11T08:35:10.187Z,"  -73"
2016-08-11T08:40:07.634Z,"  -73"
2016-08-11T08:45:05.537Z,"  -75"
2016-08-11T08:50:03.287Z,"  -73"
2016-08-11T08:55:01.205Z,"  -73"
2016-08-11T08:59:59.000Z,"  -75"
2016-08-11T09:04:56.793Z,"  -73"
2016-08-11T09:09:54.512Z,"  -73"
2016-08-11T09:14:52.269Z,"  -76"
2016-08-11T09:19:50.074Z,"  -73"
2016-08-11T09:24:47.684Z,"  -73"
2016-08-11T09:29:45.613Z,"  -74"
2016-08-11T09:34:43.216Z,"  -73"
2016-08-11T09:39:41.265Z,"  -73"
2016-08-11T09:44:39.012Z,"  -75"
2016-08-11T09:49:36.785Z,"  -73"
2016-08-11T10:04:33.617Z,"  -73"
2016-08-11T10:09:31.321Z,"  -73"
2016-08-11T10:14:29.847Z,"  -73"
2016-08-11T10:19:27.374Z,"  -74"
2016-08-11T10:24:24.933Z,"  -72"
2016-08-11T10:29:22.720Z,"  -72"
2016-08-11T10:34:20.362Z,"  -72"
2016-08-11T10:39:17.897Z,"  -73"
2016-08-11T10:44:15.875Z,"  -73"
2016-08-11T10:49:13.570Z,"  -73"
2016-08-11T10:54:11.379Z,"  -73"
2016-08-11T10:59:09.078Z,"  -73"
2016-08-11T11:04:06.793Z,"  -73"
2016-08-11T11:09:04.474Z,"  -73"
2016-08-11T11:14:02.196Z,"  -73"
2016-08-11T11:18:59.758Z,"  -73"
2016-08-11T11:23:57.369Z,"  -73"
2016-08-11T11:28:55.106Z,"  -73"
2016-08-11T11:33:52.945Z,"  -74"
2016-08-11T11:38:50.507Z,"  -73"
2016-08-11T11:43:48.408Z,"  -73"
2016-08-11T11:48:46.043Z,"  -74"
2016-08-11T11:53:43.698Z,"  -73"
2016-08-11T11:58:41.326Z,"  -73"
2016-08-11T12:03:39.049Z,"  -73"
2016-08-11T12:08:37.176Z,"  -72"
2016-08-11T12:13:34.790Z,"  -73"
2016-08-11T12:18:32.338Z,"  -74"
2016-08-11T12:23:30.005Z,"  -73"
2016-08-11T12:28:27.715Z,"  -73"
2016-08-11T12:33:25.372Z,"  -73"
2016-08-11T12:38:23.125Z,"  -73"
2016-08-11T12:43:20.768Z,"  -73"
2016-08-11T12:48:18.401Z,"  -73"
2016-08-11T12:53:16.111Z,"  -74"
2016-08-11T12:58:13.810Z,"  -74"
2016-08-11T13:03:12.465Z,"  -74"
2016-08-11T13:08:10.042Z,"  -74"
2016-08-11T13:13:07.688Z,"  -74"
2016-08-11T13:18:05.275Z,"  -73"
2016-08-11T13:23:03.110Z,"  -73"
2016-08-11T13:28:00.833Z,"  -73"
2016-08-11T13:32:58.535Z,"  -73"
2016-08-11T13:37:56.795Z,"  -73"
2016-08-11T13:42:54.380Z,"  -74"
2016-08-11T13:47:52.180Z,"  -74"
2016-08-11T13:52:49.780Z,"  -73"
2016-08-11T13:57:47.463Z,"  -73"
2016-08-11T14:02:45.306Z,"  -73"
2016-08-11T14:07:43.007Z,"  -73"
2016-08-11T14:12:40.831Z,"  -72"
2016-08-11T14:17:38.345Z,"  -72"
2016-08-11T14:22:36.074Z,"  -73"
2016-08-11T14:27:33.791Z,"  -73"
2016-08-11T14:32:31.435Z,"  -73"
2016-08-11T14:37:29.085Z,"  -73"
2016-08-11T14:42:26.907Z,"  -73"
2016-08-11T14:47:24.634Z,"  -73"
2016-08-11T14:52:22.173Z,"  -73"
2016-08-11T14:57:19.840Z,"  -72"
2016-08-11T15:02:17.523Z,"  -73"
2016-08-11T15:07:15.281Z,"  -72"
2016-08-11T15:12:13.012Z,"  -71"
2016-08-11T15:17:10.663Z,"  -72"
2016-08-11T15:22:08.380Z,"  -67"
2016-08-11T15:27:06.176Z,"  -71"
2016-08-11T15:32:03.970Z,"  -72"
2016-08-11T15:37:01.599Z,"  -72"
2016-08-11T15:41:59.530Z,"  -72"
2016-08-11T15:46:57.129Z,"  -73"
2016-08-11T15:51:55.087Z,"  -72"
2016-08-11T15:56:52.814Z,"  -79"
2016-08-11T16:01:50.450Z,"  -83"
2016-08-11T16:06:48.295Z,"  -84"
2016-08-11T16:11:45.938Z,"  -79"
2016-08-11T16:16:43.679Z,"  -80"
2016-08-11T16:21:41.380Z,"  -79"
2016-08-11T16:26:39.115Z,"  -80"
2016-08-11T16:31:36.695Z,"  -81"
2016-08-11T16:36:34.287Z,"  -80"
2016-08-11T16:41:31.965Z,"  -83"
2016-08-11T16:46:29.611Z,"  -82"
2016-08-11T16:51:27.291Z,"  -82"
2016-08-11T16:56:25.241Z,"  -82"
2016-08-11T17:01:22.937Z,"  -83"
2016-08-11T17:06:21.566Z,"  -86"
2016-08-11T17:11:19.230Z,"  -77"
2016-08-11T17:21:14.276Z,"  -78"
2016-08-11T17:26:12.002Z,"  -74"
2016-08-11T17:31:09.704Z,"  -74"
2016-08-11T17:36:07.457Z,"  -73"
2016-08-11T17:41:05.275Z,"  -73"
2016-08-11T17:46:02.943Z,"  -74"
2016-08-11T17:51:00.879Z,"  -72"
2016-08-11T17:55:58.678Z,"  -76"
2016-08-11T18:00:56.581Z,"  -73"
2016-08-11T18:05:54.363Z,"  -72"
2016-08-11T18:10:51.910Z,"  -73"
2016-08-11T18:15:49.657Z,"  -76"
2016-08-11T18:20:47.438Z,"  -72"
2016-08-11T18:25:45.177Z,"  -75"
2016-08-11T18:30:43.025Z,"  -72"
2016-08-11T18:35:40.621Z,"  -72"
2016-08-11T18:40:38.233Z,"  -73"
2016-08-11T18:45:36.072Z,"  -72"
2016-08-11T18:50:33.757Z,"  -71"
2016-08-11T18:55:31.543Z,"  -72"
2016-08-11T19:00:29.098Z,"  -70"
2016-08-11T19:05:26.721Z,"  -72"
2016-08-11T19:10:24.472Z,"  -72"
2016-08-11T19:15:22.272Z,"  -71"
2016-08-11T19:20:20.014Z,"  -71"
2016-08-11T19:25:17.701Z,"  -72"
2016-08-11T19:30:15.486Z,"  -72"
2016-08-11T19:35:13.421Z,"  -73"
2016-08-11T19:40:11.216Z,"  -73"
2016-08-11T19:45:09.084Z,"  -74"
2016-08-11T19:50:06.851Z,"  -73"
2016-08-11T19:55:04.840Z,"  -73"
2016-08-11T20:00:02.662Z,"  -72"
2016-08-11T20:05:00.560Z,"  -72"
2016-08-11T20:09:58.453Z,"  -72"
2016-08-11T20:14:56.258Z,"  -73"
2016-08-11T20:19:53.886Z,"  -73"
2016-08-11T20:24:51.656Z,"  -73"
2016-08-11T20:29:49.285Z,"  -73"
2016-08-11T20:34:46.961Z,"  -73"
2016-08-11T20:39:44.966Z,"  -73"
2016-08-11T20:44:42.677Z,"  -73"
2016-08-11T20:49:40.444Z,"  -78"
2016-08-11T20:54:38.370Z,"  -79"
2016-08-11T20:59:36.073Z,"  -76"
2016-08-11T21:04:33.797Z,"  -79"
2016-08-11T21:09:31.437Z,"  -71"
2016-08-11T21:14:29.226Z,"  -71"
2016-08-11T21:19:26.992Z,"  -80"
2016-08-11T21:24:24.718Z,"  -80"
2016-08-11T21:29:22.460Z,"  -72"
2016-08-11T21:34:20.101Z,"  -80"
2016-08-11T21:39:17.859Z,"  -80"
2016-08-11T21:44:15.757Z,"  -75"
2016-08-11T21:49:13.415Z,"  -78"
2016-08-11T21:54:11.035Z,"  -77"
2016-08-11T21:59:08.769Z,"  -77"
2016-08-11T22:04:06.454Z,"  -76"
2016-08-11T22:09:04.415Z,"  -79"
2016-08-11T22:14:02.099Z,"  -79"
2016-08-11T22:18:59.993Z,"  -79"
2016-08-11T22:23:57.839Z,"  -79"
2016-08-11T22:28:55.677Z,"  -78"
2016-08-11T22:33:53.409Z,"  -78"
2016-08-11T22:38:50.919Z,"  -77"
2016-08-11T22:43:48.638Z,"  -78"
2016-08-11T22:48:46.314Z,"  -78"
2016-08-11T22:53:44.104Z,"  -77"
2016-08-11T22:58:41.672Z,"  -75"
2016-08-11T23:03:39.365Z,"  -78"
2016-08-11T23:08:37.012Z,"  -76"
2016-08-11T23:13:34.818Z,"  -78"
2016-08-11T23:18:32.663Z,"  -77"
2016-08-11T23:23:30.281Z,"  -76"
2016-08-11T23:28:27.910Z,"  -78"
2016-08-11T23:33:25.606Z,"  -78"
2016-08-11T23:38:23.198Z,"  -76"
2016-08-11T23:43:21.023Z,"  -79"
2016-08-11T23:48:18.937Z,"  -78"
2016-08-11T23:53:16.612Z,"  -75"
2016-08-11T23:58:14.263Z,"  -78"
